Time;durP1;ratioP1;P1;durP2;ratioP2;P2;SDS_P1;SDS_P2;PMS_P1;PMS_P2;Temp;Humidity;BMP_temperature;BMP_pressure;BME280_temperature;BME280_humidity;BME280_pressure;Samples;Min_cycle;Max_cycle;Signal;HPM_P1;HPM_P2
2021/12/08 00:00:19;;;;;;;;;;;3.00;79.60;;;;;;5021007;28;88864;-58
2021/12/08 00:02:44;;;;;;;;;;;3.00;79.70;;;;;;5022528;28;87161;-58
2021/12/08 00:05:10;;;;;;;;;;;3.00;79.70;;;;;;5022445;28;87167;-58
2021/12/08 00:07:36;;;;;;;;;;;3.00;79.80;;;;;;5023030;28;89111;-58
2021/12/08 00:10:50;;;;;;;;;;;2.90;79.80;;;;;;5020746;28;89849;-58
2021/12/08 00:13:07;;;;;;;;;;;3.00;79.70;;;;;;5020551;28;89022;-58
2021/12/08 00:15:36;;;;;;;;;;;3.00;79.70;;;;;;5018759;28;88386;-58
2021/12/08 00:18:03;;;;;;;;;;;2.90;79.80;;;;;;5019986;28;87798;-58
2021/12/08 00:20:31;;;;;;;;;;;2.90;79.90;;;;;;5019117;28;88226;-58
2021/12/08 00:22:57;;;;;;;;;;;2.90;79.80;;;;;;5022365;28;87181;-58
2021/12/08 00:25:23;;;;;;;;;;;2.90;79.80;;;;;;5020614;28;88643;-58
2021/12/08 00:27:49;;;;;;;;;;;2.90;79.80;;;;;;5017416;28;89307;-58
2021/12/08 00:30:16;;;;;;;;;;;2.90;79.90;;;;;;5020597;28;87142;-58
2021/12/08 00:32:42;;;;;;;;;;;2.90;79.80;;;;;;5021271;28;89077;-58
2021/12/08 00:35:07;;;;;;;;;;;2.90;79.90;;;;;;5022388;28;87154;-58
2021/12/08 00:37:33;;;;;;;;;;;2.90;80.00;;;;;;5020616;28;88569;-58
2021/12/08 00:39:59;;;;;;;;;;;2.90;79.90;;;;;;5017237;28;87870;-58
2021/12/08 00:42:24;;;;;;;;;;;2.90;80.00;;;;;;5018415;28;87184;-58
2021/12/08 00:44:50;;;;;;;;;;;2.80;80.00;;;;;;5019541;28;87969;-58
2021/12/08 00:47:15;;;;;;;;;;;2.80;79.90;;;;;;5020351;28;88690;-58
2021/12/08 00:49:41;;;;;;;;;;;2.90;80.00;;;;;;5020698;28;86430;-58
2021/12/08 00:52:07;;;;;;;;;;;2.80;80.00;;;;;;5021637;28;88081;-58
2021/12/08 00:54:34;;;;;;;;;;;2.80;80.00;;;;;;5018818;28;87124;-58
2021/12/08 00:56:59;;;;;;;;;;;2.80;80.00;;;;;;5016567;28;88879;-58
2021/12/08 00:59:25;;;;;;;;;;;2.80;79.90;;;;;;5018008;28;88622;-58
2021/12/08 01:01:50;;;;;;;;;;;2.80;80.10;;;;;;5017153;28;88417;-58
2021/12/08 01:04:16;;;;;;;;;;;2.80;80.00;;;;;;5021272;28;88727;-58
2021/12/08 01:06:42;;;;;;;;;;;2.80;80.00;;;;;;5021231;28;87858;-58
2021/12/08 01:09:08;;;;;;;;;;;2.80;80.10;;;;;;5019903;28;87156;-58
2021/12/08 01:11:35;;;;;;;;;;;2.80;80.10;;;;;;5018086;28;87271;-58
2021/12/08 01:14:01;;;;;;;;;;;2.80;80.20;;;;;;5020403;28;88697;-58
2021/12/08 01:16:26;;;;;;;;;;;2.80;80.10;;;;;;5021542;28;88656;-59
2021/12/08 01:18:52;;;;;;;;;;;2.80;80.10;;;;;;5020995;28;87206;-58
2021/12/08 01:21:18;;;;;;;;;;;2.80;80.60;;;;;;5019615;28;88230;-59
2021/12/08 01:23:44;;;;;;;;;;;2.70;80.20;;;;;;5020512;28;89781;-58
2021/12/08 01:26:10;;;;;;;;;;;2.70;80.20;;;;;;5020797;28;89348;-58
2021/12/08 01:28:36;;;;;;;;;;;2.70;80.10;;;;;;5021564;28;87251;-58
2021/12/08 01:31:02;;;;;;;;;;;2.70;80.20;;;;;;5020458;28;87628;-58
2021/12/08 01:33:31;;;;;;;;;;;2.70;80.10;;;;;;5020329;28;89349;-59
2021/12/08 01:35:57;;;;;;;;;;;2.70;80.30;;;;;;5020282;28;87176;-58
2021/12/08 01:38:23;;;;;;;;;;;2.70;80.30;;;;;;5018160;28;87298;-58
2021/12/08 01:40:49;;;;;;;;;;;2.70;80.20;;;;;;5018145;28;87130;-58
2021/12/08 01:43:28;;;;;;;;;;;2.70;80.30;;;;;;5019093;28;87854;-58
2021/12/08 01:46:05;;;;;;;;;;;2.70;80.30;;;;;;5019559;28;90106;-58
2021/12/08 01:48:34;;;;;;;;;;;2.70;80.20;;;;;;5021180;28;87266;-58
2021/12/08 01:51:02;;;;;;;;;;;2.70;80.30;;;;;;5017395;28;88796;-58
2021/12/08 01:53:28;;;;;;;;;;;2.70;80.30;;;;;;5018708;28;87717;-58
2021/12/08 01:55:55;;;;;;;;;;;2.70;80.20;;;;;;5019169;28;87292;-58
2021/12/08 01:58:20;;;;;;;;;;;2.70;80.20;;;;;;5021557;28;87600;-58
2021/12/08 02:00:49;;;;;;;;;;;2.70;80.30;;;;;;5019856;28;87185;-58
2021/12/08 02:03:15;;;;;;;;;;;2.60;80.30;;;;;;5017438;28;88017;-58
2021/12/08 02:05:41;;;;;;;;;;;2.70;80.20;;;;;;5016709;28;87246;-58
2021/12/08 02:08:07;;;;;;;;;;;2.70;80.30;;;;;;5017734;28;87178;-58
2021/12/08 02:10:33;;;;;;;;;;;2.70;80.30;;;;;;5017660;28;88106;-59
2021/12/08 02:12:58;;;;;;;;;;;2.60;80.30;;;;;;5019008;28;87994;-58
2021/12/08 02:15:24;;;;;;;;;;;2.70;80.30;;;;;;5020630;28;87193;-58
2021/12/08 02:17:56;;;;;;;;;;;2.60;80.20;;;;;;5021243;28;88066;-58
2021/12/08 02:20:22;;;;;;;;;;;2.70;80.40;;;;;;5019277;28;87619;-58
2021/12/08 02:22:48;;;;;;;;;;;2.60;80.40;;;;;;5020724;28;89154;-58
2021/12/08 02:25:15;;;;;;;;;;;2.60;80.40;;;;;;5017292;28;89275;-58
2021/12/08 02:27:41;;;;;;;;;;;2.60;80.30;;;;;;5020174;28;86462;-58
2021/12/08 02:30:59;;;;;;;;;;;2.60;80.30;;;;;;5020479;28;88831;-58
2021/12/08 02:46:53;;;;;;;;;;;2.50;80.40;;;;;;5019741;28;87439;-58
2021/12/08 02:49:20;;;;;;;;;;;2.60;80.40;;;;;;5016786;28;87225;-58
2021/12/08 02:51:47;;;;;;;;;;;2.60;80.50;;;;;;5015882;28;88776;-58
2021/12/08 02:54:12;;;;;;;;;;;2.50;80.30;;;;;;5015846;28;88744;-58
2021/12/08 02:56:38;;;;;;;;;;;2.50;80.40;;;;;;5016966;28;87134;-58
2021/12/08 02:59:04;;;;;;;;;;;2.50;80.60;;;;;;5016497;28;87267;-58
2021/12/08 03:01:30;;;;;;;;;;;2.50;80.50;;;;;;5015611;28;89907;-59
2021/12/08 03:03:55;;;;;;;;;;;2.50;80.50;;;;;;5020529;28;87134;-58
2021/12/08 03:06:21;;;;;;;;;;;2.50;80.40;;;;;;5018652;28;87740;-58
2021/12/08 03:08:47;;;;;;;;;;;2.50;80.50;;;;;;5020316;28;87149;-58
2021/12/08 03:11:12;;;;;;;;;;;2.50;80.60;;;;;;5017842;28;89090;-58
2021/12/08 03:13:43;;;;;;;;;;;2.50;80.70;;;;;;5014975;28;89207;-58
2021/12/08 03:16:10;;;;;;;;;;;2.50;80.60;;;;;;5016166;28;87151;-57
2021/12/08 03:18:39;;;;;;;;;;;2.50;80.60;;;;;;5018375;28;87663;-58
2021/12/08 03:21:06;;;;;;;;;;;2.50;80.60;;;;;;5015518;28;87812;-58
2021/12/08 03:23:48;;;;;;;;;;;2.50;80.60;;;;;;5015492;28;88140;-58
2021/12/08 03:26:14;;;;;;;;;;;2.50;80.50;;;;;;5017999;28;88946;-58
2021/12/08 03:28:47;;;;;;;;;;;2.50;80.50;;;;;;5015747;28;87216;-58
2021/12/08 03:31:17;;;;;;;;;;;2.50;80.60;;;;;;5019872;28;88932;-58
2021/12/08 03:33:44;;;;;;;;;;;2.40;80.50;;;;;;5015146;28;89620;-58
2021/12/08 03:36:10;;;;;;;;;;;2.50;80.40;;;;;;5018891;28;87298;-58
2021/12/08 03:38:39;;;;;;;;;;;2.50;80.50;;;;;;5019081;28;87913;-58
2021/12/08 03:41:06;;;;;;;;;;;2.50;80.40;;;;;;5020838;28;89154;-58
2021/12/08 03:43:32;;;;;;;;;;;2.40;80.50;;;;;;5020844;28;86406;-58
2021/12/08 03:45:58;;;;;;;;;;;2.40;80.40;;;;;;5021168;28;87161;-58
2021/12/08 03:48:27;;;;;;;;;;;2.40;80.50;;;;;;5023673;28;89492;-58
2021/12/08 03:50:53;;;;;;;;;;;2.40;80.70;;;;;;5018941;28;89585;-58
2021/12/08 03:53:19;;;;;;;;;;;2.40;80.50;;;;;;5019484;28;88377;-58
2021/12/08 03:55:47;;;;;;;;;;;2.40;80.60;;;;;;5018654;28;87242;-58
2021/12/08 03:58:13;;;;;;;;;;;2.40;80.60;;;;;;5021316;28;88892;-58
2021/12/08 04:00:39;;;;;;;;;;;2.40;80.70;;;;;;5018795;28;88255;-58
2021/12/08 04:03:06;;;;;;;;;;;2.40;80.60;;;;;;5018707;28;87447;-58
2021/12/08 04:05:44;;;;;;;;;;;2.40;80.70;;;;;;5022231;28;88298;-58
2021/12/08 04:08:16;;;;;;;;;;;2.40;80.70;;;;;;5022350;28;87872;-58
2021/12/08 04:10:44;;;;;;;;;;;2.40;80.70;;;;;;5022932;28;87179;-59
2021/12/08 04:13:09;;;;;;;;;;;2.40;80.70;;;;;;5017900;28;88823;-58
2021/12/08 04:15:35;;;;;;;;;;;2.40;80.80;;;;;;5018214;28;88122;-58
2021/12/08 04:18:01;;;;;;;;;;;2.40;80.70;;;;;;5019986;28;87949;-58
2021/12/08 04:20:37;;;;;;;;;;;2.40;80.80;;;;;;5020848;28;88426;-58
2021/12/08 04:23:06;;;;;;;;;;;2.40;80.70;;;;;;5021742;28;87144;-58
2021/12/08 04:25:33;;;;;;;;;;;2.30;80.70;;;;;;5018284;28;89238;-58
2021/12/08 04:28:00;;;;;;;;;;;2.40;80.90;;;;;;5019518;28;88668;-58
2021/12/08 04:30:29;;;;;;;;;;;2.40;80.70;;;;;;5023986;28;88884;-58
2021/12/08 04:32:54;;;;;;;;;;;2.30;80.80;;;;;;5020184;28;87458;-58
2021/12/08 04:35:21;;;;;;;;;;;2.30;80.90;;;;;;5021000;28;87264;-59
2021/12/08 04:37:51;;;;;;;;;;;2.30;80.90;;;;;;5020648;28;89747;-58
2021/12/08 04:43:08;;;;;;;;;;;2.30;80.80;;;;;;5019315;28;87245;-59
2021/12/08 04:45:51;;;;;;;;;;;2.30;80.80;;;;;;5017458;28;89827;-58
2021/12/08 04:48:37;;;;;;;;;;;2.30;80.80;;;;;;5020447;28;89149;-58
2021/12/08 05:02:34;;;;;;;;;;;2.30;81.00;;;;;;5018205;28;87307;-58
2021/12/08 05:09:43;;;;;;;;;;;2.30;80.70;;;;;;5017313;28;88036;-58
2021/12/08 05:12:10;;;;;;;;;;;2.30;80.70;;;;;;5017212;28;87126;-58
2021/12/08 05:14:45;;;;;;;;;;;2.30;80.60;;;;;;5021696;28;87164;-58
2021/12/08 05:17:17;;;;;;;;;;;2.30;81.20;;;;;;5020251;28;88720;-58
2021/12/08 05:19:44;;;;;;;;;;;2.20;80.80;;;;;;5018885;28;88857;-58
2021/12/08 05:22:24;;;;;;;;;;;2.20;80.70;;;;;;5021006;28;87760;-58
2021/12/08 05:24:52;;;;;;;;;;;2.20;80.70;;;;;;5018257;28;86441;-58
2021/12/08 05:27:25;;;;;;;;;;;2.20;80.80;;;;;;5019440;28;88673;-58
2021/12/08 05:29:56;;;;;;;;;;;2.20;80.80;;;;;;5019161;28;88413;-58
2021/12/08 05:32:22;;;;;;;;;;;2.20;80.80;;;;;;5019088;28;88083;-58
2021/12/08 05:34:47;;;;;;;;;;;2.20;80.80;;;;;;5020847;27;88294;-58
2021/12/08 05:37:14;;;;;;;;;;;2.20;80.80;;;;;;5019061;28;87620;-58
2021/12/08 05:39:40;;;;;;;;;;;2.20;80.70;;;;;;5022371;28;87114;-58
2021/12/08 05:42:08;;;;;;;;;;;2.20;80.90;;;;;;5020546;28;89151;-58
2021/12/08 05:44:34;;;;;;;;;;;2.20;80.90;;;;;;5019297;28;87213;-58
2021/12/08 05:47:02;;;;;;;;;;;2.20;80.90;;;;;;5020274;28;87164;-58
2021/12/08 05:49:28;;;;;;;;;;;2.10;81.00;;;;;;5017634;28;87551;-58
2021/12/08 05:51:54;;;;;;;;;;;2.10;81.00;;;;;;5018502;28;87140;-58
2021/12/08 05:54:22;;;;;;;;;;;2.10;81.00;;;;;;5018341;28;87486;-58
2021/12/08 05:56:49;;;;;;;;;;;2.10;81.00;;;;;;5016076;28;88658;-58
2021/12/08 05:59:15;;;;;;;;;;;2.10;81.00;;;;;;5016145;28;89053;-58
2021/12/08 06:01:43;;;;;;;;;;;2.10;81.10;;;;;;5019133;28;88788;-58
2021/12/08 06:04:11;;;;;;;;;;;2.10;81.10;;;;;;5020928;28;87195;-58
2021/12/08 06:06:37;;;;;;;;;;;2.10;81.20;;;;;;5019301;28;89274;-58
2021/12/08 06:09:05;;;;;;;;;;;2.10;81.10;;;;;;5019418;28;89813;-58
2021/12/08 06:11:31;;;;;;;;;;;2.10;81.20;;;;;;5017347;28;87131;-58
2021/12/08 06:14:00;;;;;;;;;;;2.10;81.20;;;;;;5018964;28;87366;-59
2021/12/08 06:16:26;;;;;;;;;;;2.10;81.00;;;;;;5017759;28;89820;-58
2021/12/08 06:18:52;;;;;;;;;;;2.10;80.90;;;;;;5019173;28;87908;-58
2021/12/08 06:21:20;;;;;;;;;;;2.10;81.00;;;;;;5019631;28;88171;-58
2021/12/08 06:23:46;;;;;;;;;;;2.10;81.00;;;;;;5020715;28;87136;-58
2021/12/08 06:26:12;;;;;;;;;;;2.10;81.00;;;;;;5021108;28;87196;-58
2021/12/08 06:28:38;;;;;;;;;;;2.10;81.00;;;;;;5018692;28;87698;-57
2021/12/08 06:31:05;;;;;;;;;;;2.10;81.10;;;;;;5019461;28;87225;-58
2021/12/08 06:33:31;;;;;;;;;;;2.10;81.00;;;;;;5017118;28;87435;-58
2021/12/08 06:36:03;;;;;;;;;;;2.10;81.10;;;;;;5015211;28;90155;-58
2021/12/08 06:38:29;;;;;;;;;;;2.10;81.10;;;;;;5019467;28;86418;-58
2021/12/08 06:41:06;;;;;;;;;;;2.10;81.00;;;;;;5018449;28;87209;-58
2021/12/08 06:43:38;;;;;;;;;;;2.10;80.90;;;;;;5020118;28;87658;-58
2021/12/08 06:46:04;;;;;;;;;;;2.10;81.00;;;;;;5015747;28;88105;-58
2021/12/08 06:48:35;;;;;;;;;;;2.10;80.80;;;;;;5015834;28;88222;-58
2021/12/08 06:51:03;;;;;;;;;;;2.10;81.00;;;;;;5015868;28;87182;-57
2021/12/08 06:53:29;;;;;;;;;;;2.10;80.80;;;;;;5019222;28;87443;-58
2021/12/08 06:56:07;;;;;;;;;;;2.00;81.40;;;;;;5017080;28;87173;-58
2021/12/08 06:58:34;;;;;;;;;;;2.00;80.90;;;;;;5018795;28;89038;-58
2021/12/08 07:01:18;;;;;;;;;;;2.00;80.90;;;;;;5016826;28;88592;-57
2021/12/08 07:04:10;;;;;;;;;;;2.00;80.90;;;;;;5019050;28;89291;-58
2021/12/08 07:09:03;;;;;;;;;;;2.10;80.90;;;;;;5015232;28;89464;-58
2021/12/08 07:11:29;;;;;;;;;;;2.10;80.90;;;;;;5021196;28;88053;-58
2021/12/08 07:13:55;;;;;;;;;;;2.00;80.90;;;;;;5023022;28;87300;-58
2021/12/08 07:16:23;;;;;;;;;;;2.00;80.80;;;;;;5022049;28;87976;-58
2021/12/08 07:19:00;;;;;;;;;;;2.00;80.90;;;;;;5020111;28;87815;-58
2021/12/08 07:21:27;;;;;;;;;;;2.00;80.90;;;;;;5022624;28;87858;-58
2021/12/08 07:23:58;;;;;;;;;;;2.00;80.90;;;;;;5019928;28;88303;-58
2021/12/08 07:26:26;;;;;;;;;;;2.00;80.80;;;;;;5019804;28;87138;-58
2021/12/08 07:28:52;;;;;;;;;;;2.00;80.80;;;;;;5025641;28;87128;-58
2021/12/08 07:31:23;;;;;;;;;;;2.00;81.00;;;;;;5022182;28;87175;-58
2021/12/08 07:33:49;;;;;;;;;;;2.00;81.00;;;;;;5021933;28;88924;-58
2021/12/08 07:36:17;;;;;;;;;;;2.00;81.10;;;;;;5022038;28;90480;-59
2021/12/08 07:38:44;;;;;;;;;;;2.00;81.00;;;;;;5020810;28;87134;-58
2021/12/08 07:41:13;;;;;;;;;;;2.00;81.00;;;;;;5025281;27;88284;-58
2021/12/08 07:43:41;;;;;;;;;;;2.00;81.00;;;;;;5021838;28;89049;-58
2021/12/08 07:46:12;;;;;;;;;;;2.00;81.00;;;;;;5020246;28;87224;-58
2021/12/08 07:48:39;;;;;;;;;;;2.00;80.90;;;;;;5021210;28;87555;-57
2021/12/08 07:51:31;;;;;;;;;;;2.00;80.90;;;;;;5022000;28;87777;-57
2021/12/08 07:53:58;;;;;;;;;;;1.90;81.00;;;;;;5016082;28;87448;-57
2021/12/08 07:56:25;;;;;;;;;;;1.90;81.00;;;;;;5018166;28;90018;-58
2021/12/08 07:58:52;;;;;;;;;;;1.90;81.00;;;;;;5019424;28;88223;-57
2021/12/08 08:01:20;;;;;;;;;;;1.90;81.00;;;;;;5021617;28;88131;-59
2021/12/08 08:03:46;;;;;;;;;;;2.00;81.00;;;;;;5020190;28;89123;-58
2021/12/08 08:06:14;;;;;;;;;;;1.90;81.00;;;;;;5021298;28;87156;-58
2021/12/08 08:08:40;;;;;;;;;;;1.90;80.90;;;;;;5018906;28;87757;-58
2021/12/08 08:11:08;;;;;;;;;;;1.90;81.10;;;;;;5019478;28;87976;-58
2021/12/08 08:13:33;;;;;;;;;;;1.90;81.10;;;;;;5021468;28;87116;-57
2021/12/08 08:16:05;;;;;;;;;;;1.90;81.10;;;;;;5018445;28;87714;-57
2021/12/08 08:18:35;;;;;;;;;;;1.90;81.10;;;;;;5018389;28;87002;-58
2021/12/08 08:21:03;;;;;;;;;;;1.90;81.20;;;;;;5019297;28;88258;-57
2021/12/08 08:23:31;;;;;;;;;;;1.90;81.20;;;;;;5021079;28;88407;-58
2021/12/08 08:25:57;;;;;;;;;;;1.90;81.10;;;;;;5019199;28;88073;-58
2021/12/08 08:28:23;;;;;;;;;;;1.90;81.10;;;;;;5019659;28;88415;-58
2021/12/08 08:30:51;;;;;;;;;;;1.90;81.10;;;;;;5019819;28;89671;-58
2021/12/08 08:33:17;;;;;;;;;;;1.90;81.10;;;;;;5022298;28;88572;-58
2021/12/08 08:35:45;;;;;;;;;;;1.90;81.10;;;;;;5019847;28;88497;-58
2021/12/08 08:38:15;;;;;;;;;;;1.90;81.10;;;;;;5021917;28;87154;-57
2021/12/08 08:40:44;;;;;;;;;;;1.90;81.20;;;;;;5017328;28;87256;-58
2021/12/08 08:43:10;;;;;;;;;;;1.90;81.20;;;;;;5018017;28;88515;-58
2021/12/08 08:45:39;;;;;;;;;;;1.90;81.20;;;;;;5017842;28;87157;-58
2021/12/08 08:48:04;;;;;;;;;;;1.90;81.10;;;;;;5021843;28;88602;-58
2021/12/08 08:50:33;;;;;;;;;;;1.90;81.10;;;;;;5018919;28;89049;-58
2021/12/08 08:52:59;;;;;;;;;;;1.90;81.10;;;;;;5019529;28;87222;-58
2021/12/08 08:55:30;;;;;;;;;;;1.90;81.20;;;;;;5022241;28;87317;-58
2021/12/08 08:57:55;;;;;;;;;;;1.90;81.10;;;;;;5020270;28;87164;-56
2021/12/08 09:00:33;;;;;;;;;;;1.90;81.70;;;;;;5021276;28;87515;-58
2021/12/08 09:03:03;;;;;;;;;;;1.90;81.10;;;;;;5018068;28;89443;-58
2021/12/08 09:05:36;;;;;;;;;;;1.90;81.20;;;;;;5018783;28;87142;-58
2021/12/08 09:08:03;;;;;;;;;;;1.90;81.20;;;;;;5020344;28;88715;-58
2021/12/08 09:10:38;;;;;;;;;;;1.90;81.20;;;;;;5020960;28;89372;-57
2021/12/08 09:13:10;;;;;;;;;;;1.90;81.20;;;;;;5017014;28;88150;-57
2021/12/08 09:15:38;;;;;;;;;;;1.90;81.20;;;;;;5017920;28;89775;-58
2021/12/08 09:18:04;;;;;;;;;;;1.90;81.30;;;;;;5023363;28;87751;-58
2021/12/08 09:20:37;;;;;;;;;;;1.90;81.20;;;;;;5021516;28;88779;-58
2021/12/08 09:23:08;;;;;;;;;;;1.90;81.10;;;;;;5019234;28;89383;-58
2021/12/08 09:25:43;;;;;;;;;;;1.90;81.10;;;;;;5019507;28;87204;-58
2021/12/08 09:28:11;;;;;;;;;;;1.90;81.10;;;;;;5020628;28;88824;-59
2021/12/08 09:30:41;;;;;;;;;;;1.90;81.00;;;;;;5018522;28;88179;-58
2021/12/08 09:33:10;;;;;;;;;;;1.90;81.10;;;;;;5020647;28;86497;-59
2021/12/08 09:35:47;;;;;;;;;;;1.90;81.10;;;;;;5016720;28;87196;-59
2021/12/08 09:38:15;;;;;;;;;;;2.00;81.20;;;;;;5018863;28;89448;-58
2021/12/08 09:40:44;;;;;;;;;;;1.90;81.10;;;;;;5022528;28;88135;-58
2021/12/08 09:43:13;;;;;;;;;;;2.00;81.10;;;;;;5016790;28;88434;-58
2021/12/08 09:45:43;;;;;;;;;;;2.00;81.10;;;;;;5019278;28;87113;-58
2021/12/08 09:48:10;;;;;;;;;;;2.00;81.10;;;;;;5019951;28;88518;-59
2021/12/08 09:50:36;;;;;;;;;;;2.00;81.20;;;;;;5020299;28;89691;-58
2021/12/08 09:53:02;;;;;;;;;;;2.00;81.20;;;;;;5021117;28;87154;-59
2021/12/08 09:55:27;;;;;;;;;;;2.00;81.10;;;;;;5021184;28;87726;-59
2021/12/08 09:57:53;;;;;;;;;;;2.00;81.20;;;;;;5019098;28;87399;-59
2021/12/08 10:00:25;;;;;;;;;;;2.00;81.10;;;;;;5016723;28;88528;-59
2021/12/08 10:02:57;;;;;;;;;;;2.00;81.00;;;;;;5019761;28;88904;-59
2021/12/08 10:05:25;;;;;;;;;;;2.00;81.10;;;;;;5017862;28;88899;-59
2021/12/08 10:07:51;;;;;;;;;;;2.00;81.20;;;;;;5020043;28;88756;-59
2021/12/08 10:10:16;;;;;;;;;;;2.00;81.20;;;;;;5020193;28;88146;-59
2021/12/08 10:12:43;;;;;;;;;;;2.00;81.10;;;;;;5020636;28;87099;-59
2021/12/08 10:15:11;;;;;;;;;;;2.00;81.10;;;;;;5019292;28;88839;-59
2021/12/08 10:17:37;;;;;;;;;;;2.10;81.20;;;;;;5016311;28;87930;-59
2021/12/08 10:20:11;;;;;;;;;;;2.00;81.10;;;;;;5017776;28;87150;-59
2021/12/08 10:22:37;;;;;;;;;;;2.00;81.00;;;;;;5020418;28;88813;-59
2021/12/08 10:25:08;;;;;;;;;;;2.00;81.00;;;;;;5022070;28;87755;-59
2021/12/08 10:27:52;;;;;;;;;;;2.00;81.10;;;;;;5020390;28;88875;-59
2021/12/08 10:30:22;;;;;;;;;;;2.00;81.10;;;;;;5016050;28;91090;-59
2021/12/08 10:32:49;;;;;;;;;;;2.10;81.10;;;;;;5018739;28;87141;-59
2021/12/08 10:35:39;;;;;;;;;;;2.00;81.10;;;;;;5016280;28;88725;-59
2021/12/08 10:38:04;;;;;;;;;;;2.00;81.00;;;;;;5017911;28;89455;-58
2021/12/08 10:40:30;;;;;;;;;;;2.10;81.10;;;;;;5019102;28;87170;-58
2021/12/08 10:42:56;;;;;;;;;;;2.20;80.80;;;;;;5018858;28;89225;-59
2021/12/08 10:45:26;;;;;;;;;;;2.30;80.40;;;;;;5023095;28;88129;-58
2021/12/08 10:47:55;;;;;;;;;;;2.40;80.10;;;;;;5022997;28;87518;-59
2021/12/08 10:56:05;;;;;;;;;;;2.40;80.20;;;;;;5019861;28;88069;-59
2021/12/08 10:58:32;;;;;;;;;;;2.30;80.10;;;;;;5022627;28;88382;-59
2021/12/08 11:01:11;;;;;;;;;;;2.30;80.30;;;;;;5021961;28;87184;-59
2021/12/08 11:03:38;;;;;;;;;;;2.20;80.50;;;;;;5021244;28;88777;-59
2021/12/08 11:06:04;;;;;;;;;;;2.20;80.70;;;;;;5023418;28;89704;-59
2021/12/08 11:08:34;;;;;;;;;;;2.30;80.50;;;;;;5026713;28;87182;-59
2021/12/08 11:11:00;;;;;;;;;;;2.20;80.60;;;;;;5018732;28;88234;-59
2021/12/08 11:13:33;;;;;;;;;;;2.20;80.30;;;;;;5019458;28;88198;-59
2021/12/08 11:16:07;;;;;;;;;;;2.20;80.50;;;;;;5021738;28;87148;-59
2021/12/08 11:18:38;;;;;;;;;;;2.20;80.60;;;;;;5019584;28;89017;-59
2021/12/08 11:21:15;;;;;;;;;;;2.20;80.60;;;;;;5018726;28;88180;-59
2021/12/08 11:23:46;;;;;;;;;;;2.20;80.80;;;;;;5020797;28;88547;-59
2021/12/08 11:26:17;;;;;;;;;;;2.20;80.70;;;;;;5018710;28;89284;-59
2021/12/08 11:28:44;;;;;;;;;;;2.20;80.80;;;;;;5019671;28;87292;-59
2021/12/08 11:31:12;;;;;;;;;;;2.20;80.90;;;;;;5022183;28;87145;-59
2021/12/08 11:33:41;;;;;;;;;;;2.20;80.90;;;;;;5022678;28;87135;-59
2021/12/08 11:36:15;;;;;;;;;;;2.20;80.90;;;;;;5019029;28;88641;-59
2021/12/08 11:38:41;;;;;;;;;;;2.20;80.70;;;;;;5020771;28;88756;-59
2021/12/08 11:41:20;;;;;;;;;;;2.20;80.60;;;;;;5021665;28;87164;-59
2021/12/08 11:43:49;;;;;;;;;;;2.30;80.50;;;;;;5021377;28;88656;-59
2021/12/08 11:46:16;;;;;;;;;;;2.30;80.50;;;;;;5018026;28;88578;-59
2021/12/08 11:49:06;;;;;;;;;;;2.30;80.50;;;;;;5023364;28;87201;-59
2021/12/08 11:51:35;;;;;;;;;;;2.20;80.60;;;;;;5019705;28;88471;-59
2021/12/08 11:54:01;;;;;;;;;;;2.20;80.70;;;;;;5023035;28;89571;-59
2021/12/08 11:56:37;;;;;;;;;;;2.30;81.10;;;;;;5021523;28;87485;-59
2021/12/08 11:59:04;;;;;;;;;;;2.20;80.90;;;;;;5021598;28;89861;-59
2021/12/08 12:01:30;;;;;;;;;;;2.30;80.80;;;;;;5020190;28;87171;-59
2021/12/08 12:03:56;;;;;;;;;;;2.30;80.80;;;;;;5019071;28;87760;-59
2021/12/08 12:06:27;;;;;;;;;;;2.30;81.10;;;;;;5017532;28;89426;-59
2021/12/08 12:08:57;;;;;;;;;;;2.30;80.60;;;;;;5019599;28;88258;-58
2021/12/08 12:11:24;;;;;;;;;;;2.30;80.60;;;;;;5018598;28;88122;-59
2021/12/08 12:13:50;;;;;;;;;;;2.30;80.80;;;;;;5018179;28;89639;-59
2021/12/08 12:16:16;;;;;;;;;;;2.30;80.70;;;;;;5022885;28;87128;-59
2021/12/08 12:18:42;;;;;;;;;;;2.30;80.80;;;;;;5019643;28;88546;-59
2021/12/08 12:21:10;;;;;;;;;;;2.30;80.80;;;;;;5020503;28;87168;-59
2021/12/08 12:23:45;;;;;;;;;;;2.30;80.70;;;;;;5019968;28;87912;-59
2021/12/08 12:26:14;;;;;;;;;;;2.30;80.70;;;;;;5019367;28;89124;-59
2021/12/08 12:28:49;;;;;;;;;;;2.30;80.90;;;;;;5022455;28;86449;-59
2021/12/08 12:31:19;;;;;;;;;;;2.30;80.70;;;;;;5022613;28;87137;-59
2021/12/08 12:33:46;;;;;;;;;;;2.30;80.70;;;;;;5021595;28;89665;-59
2021/12/08 12:36:32;;;;;;;;;;;2.40;80.80;;;;;;5020730;28;88103;-59
2021/12/08 12:39:09;;;;;;;;;;;2.30;80.70;;;;;;5023647;28;88969;-59
2021/12/08 12:41:35;;;;;;;;;;;2.30;80.70;;;;;;5021817;28;87157;-58
2021/12/08 12:44:21;;;;;;;;;;;2.30;80.80;;;;;;5022243;28;87191;-59
2021/12/08 12:47:22;;;;;;;;;;;2.30;80.90;;;;;;5020187;28;88780;-59
2021/12/08 12:50:08;;;;;;;;;;;2.30;80.90;;;;;;4989229;28;87360;-59
2021/12/08 12:52:40;;;;;;;;;;;2.30;81.00;;;;;;5020264;28;88562;-59
2021/12/08 12:55:13;;;;;;;;;;;2.30;81.00;;;;;;5020016;28;87348;-59
2021/12/08 12:57:57;;;;;;;;;;;2.20;81.10;;;;;;5017224;28;88641;-59
2021/12/08 13:00:26;;;;;;;;;;;2.30;81.20;;;;;;5020791;28;87241;-59
2021/12/08 13:02:52;;;;;;;;;;;2.20;81.20;;;;;;5019279;28;88132;-59
2021/12/08 13:05:18;;;;;;;;;;;2.20;81.30;;;;;;5019058;28;88982;-59
2021/12/08 13:07:57;;;;;;;;;;;2.20;81.30;;;;;;5018139;28;89065;-59
2021/12/08 13:10:32;;;;;;;;;;;2.20;81.40;;;;;;5021107;28;87211;-59
2021/12/08 13:13:14;;;;;;;;;;;2.20;81.30;;;;;;5021834;28;87292;-59
2021/12/08 13:15:45;;;;;;;;;;;2.20;81.40;;;;;;5018792;28;87946;-59
2021/12/08 13:18:12;;;;;;;;;;;2.20;81.30;;;;;;5018053;28;87200;-59
2021/12/08 13:20:40;;;;;;;;;;;2.20;81.50;;;;;;5018033;28;88900;-59
2021/12/08 13:23:08;;;;;;;;;;;2.20;81.50;;;;;;5022446;28;90134;-59
2021/12/08 13:25:42;;;;;;;;;;;2.20;81.50;;;;;;5018138;28;87920;-59
2021/12/08 13:28:27;;;;;;;;;;;2.20;81.50;;;;;;5018957;28;89739;-59
2021/12/08 13:31:06;;;;;;;;;;;2.20;81.70;;;;;;5020864;28;87279;-60
2021/12/08 13:33:37;;;;;;;;;;;2.20;81.50;;;;;;5017381;28;88210;-59
2021/12/08 13:36:21;;;;;;;;;;;2.20;81.50;;;;;;5016304;28;89880;-59
2021/12/08 13:39:06;;;;;;;;;;;2.20;81.60;;;;;;5018295;28;87153;-59
2021/12/08 13:41:33;;;;;;;;;;;2.20;81.50;;;;;;5019101;28;87855;-59
2021/12/08 13:44:02;;;;;;;;;;;2.20;81.90;;;;;;5016244;28;88714;-59
2021/12/08 13:46:36;;;;;;;;;;;2.10;81.90;;;;;;5022082;28;86419;-60
2021/12/08 13:49:19;;;;;;;;;;;2.10;81.80;;;;;;5020058;28;88091;-59
2021/12/08 13:52:03;;;;;;;;;;;2.20;81.80;;;;;;5019415;28;87130;-59
2021/12/08 13:54:30;;;;;;;;;;;2.10;81.90;;;;;;5020807;28;88123;-59
2021/12/08 13:56:57;;;;;;;;;;;2.10;81.80;;;;;;5019562;28;89444;-59
2021/12/08 13:59:45;;;;;;;;;;;2.10;81.70;;;;;;5019012;28;87123;-59
2021/12/08 14:02:18;;;;;;;;;;;2.10;81.80;;;;;;5021016;28;89239;-59
2021/12/08 14:04:43;;;;;;;;;;;2.10;81.90;;;;;;5017317;28;88149;-59
2021/12/08 14:07:16;;;;;;;;;;;2.10;81.90;;;;;;5017450;28;87237;-59
2021/12/08 14:09:41;;;;;;;;;;;2.10;82.10;;;;;;5023517;28;87178;-59
2021/12/08 14:12:07;;;;;;;;;;;2.10;82.10;;;;;;5021242;28;87372;-59
2021/12/08 14:14:32;;;;;;;;;;;2.10;82.10;;;;;;5017912;28;87733;-59
2021/12/08 14:16:58;;;;;;;;;;;2.10;82.20;;;;;;5015913;28;88182;-59
2021/12/08 14:19:23;;;;;;;;;;;2.10;82.20;;;;;;5015894;28;88122;-59
2021/12/08 14:21:49;;;;;;;;;;;2.10;82.10;;;;;;5016483;28;88567;-59
2021/12/08 14:24:14;;;;;;;;;;;2.10;81.90;;;;;;5016498;28;88104;-59
2021/12/08 14:26:40;;;;;;;;;;;2.10;82.20;;;;;;5016338;28;87159;-59
2021/12/08 14:29:07;;;;;;;;;;;2.20;82.00;;;;;;5016472;28;88877;-59
2021/12/08 14:31:34;;;;;;;;;;;2.20;81.90;;;;;;5022846;28;89005;-59
2021/12/08 14:33:59;;;;;;;;;;;2.20;81.70;;;;;;5018193;28;89335;-59
2021/12/08 14:36:42;;;;;;;;;;;2.20;81.90;;;;;;5017820;28;89290;-59
2021/12/08 14:39:31;;;;;;;;;;;2.20;82.10;;;;;;5020732;28;88900;-59
2021/12/08 14:42:00;;;;;;;;;;;2.20;82.00;;;;;;5019487;28;88542;-59
2021/12/08 14:44:30;;;;;;;;;;;2.10;81.80;;;;;;5015743;28;90267;-59
2021/12/08 14:47:00;;;;;;;;;;;2.10;81.80;;;;;;5017080;28;87185;-59
2021/12/08 14:49:30;;;;;;;;;;;2.20;82.00;;;;;;5018684;28;88785;-59
2021/12/08 14:51:57;;;;;;;;;;;2.10;82.10;;;;;;5019325;28;89756;-59
2021/12/08 14:54:24;;;;;;;;;;;2.10;82.50;;;;;;5020827;28;87140;-59
2021/12/08 14:57:03;;;;;;;;;;;2.20;81.90;;;;;;5015170;28;90073;-58
2021/12/08 14:59:30;;;;;;;;;;;2.20;82.20;;;;;;5015835;28;87180;-59
2021/12/08 15:01:56;;;;;;;;;;;2.10;82.20;;;;;;5020626;28;88695;-59
2021/12/08 15:04:21;;;;;;;;;;;2.20;82.90;;;;;;5019164;28;88138;-59
2021/12/08 15:06:53;;;;;;;;;;;2.20;81.90;;;;;;5018494;28;87157;-59
2021/12/08 15:09:18;;;;;;;;;;;2.10;82.00;;;;;;5016045;28;89410;-59
2021/12/08 15:11:44;;;;;;;;;;;2.10;82.40;;;;;;4995220;28;90970;-59
2021/12/08 15:14:13;;;;;;;;;;;2.10;82.40;;;;;;4998245;28;87165;-58
2021/12/08 15:16:44;;;;;;;;;;;2.10;82.50;;;;;;4996294;28;89975;-58
2021/12/08 15:19:12;;;;;;;;;;;2.10;82.20;;;;;;4996004;28;87178;-58
2021/12/08 15:21:39;;;;;;;;;;;2.10;82.40;;;;;;4998495;28;88757;-59
2021/12/08 15:24:07;;;;;;;;;;;2.10;82.30;;;;;;4995403;28;89494;-59